Time;durP1;ratioP1;P1;durP2;ratioP2;P2;SDS_P1;SDS_P2;PMS_P1;PMS_P2;Temp;Humidity;BMP_temperature;BMP_pressure;BME280_temperature;BME280_humidity;BME280_pressure;Samples;Min_cycle;Max_cycle;Signal;HPM_P1;HPM_P2
2022/03/24 00:00:39;;;;;;;13.57;8.95;;;7.80;99.90;;;;;;5023711;28;20124;-59
2022/03/24 00:03:06;;;;;;;11.27;8.52;;;7.70;99.90;;;;;;5024135;28;20046;-59
2022/03/24 00:05:34;;;;;;;12.25;9.05;;;7.70;99.90;;;;;;5021314;28;20631;-56
2022/03/24 00:08:00;;;;;;;12.50;9.05;;;7.60;99.90;;;;;;5024445;28;20106;-60
2022/03/24 00:10:27;;;;;;;12.18;8.43;;;7.60;99.90;;;;;;5024574;28;20470;-60
2022/03/24 00:12:57;;;;;;;15.68;8.57;;;7.50;99.90;;;;;;5024519;28;20140;-59
2022/03/24 00:15:24;;;;;;;11.13;7.93;;;7.50;99.90;;;;;;5020098;28;20134;-59
2022/03/24 00:17:50;;;;;;;11.32;7.90;;;7.50;99.90;;;;;;5016214;28;20081;-66
2022/03/24 00:20:17;;;;;;;11.43;8.15;;;7.50;99.90;;;;;;5022568;28;20089;-59
2022/03/24 00:22:44;;;;;;;11.10;7.68;;;7.40;99.90;;;;;;5024003;28;20124;-59
2022/03/24 00:25:11;;;;;;;10.23;7.07;;;7.30;99.90;;;;;;5023711;28;20085;-59
2022/03/24 00:27:39;;;;;;;11.90;7.88;;;7.20;99.90;;;;;;5024071;28;20092;-59
2022/03/24 00:30:08;;;;;;;10.55;7.65;;;7.20;99.90;;;;;;5022790;28;20097;-59
2022/03/24 00:32:35;;;;;;;9.45;7.10;;;7.20;99.90;;;;;;5023344;28;20111;-59
2022/03/24 00:35:03;;;;;;;10.65;7.90;;;7.20;99.90;;;;;;5021774;28;20049;-59
2022/03/24 00:37:31;;;;;;;10.05;6.75;;;7.20;99.90;;;;;;5023973;28;20053;-59
2022/03/24 00:40:00;;;;;;;10.50;7.60;;;7.20;99.90;;;;;;5023230;28;20154;-59
2022/03/24 00:42:27;;;;;;;10.52;7.45;;;7.10;99.90;;;;;;5021857;28;20099;-59
2022/03/24 00:44:54;;;;;;;12.05;7.80;;;7.10;99.90;;;;;;5022213;28;20235;-59
2022/03/24 00:47:21;;;;;;;8.52;6.88;;;7.10;99.90;;;;;;5023953;28;20140;-59
2022/03/24 00:49:48;;;;;;;8.50;6.65;;;7.10;99.90;;;;;;5023135;28;20073;-61
2022/03/24 00:52:15;;;;;;;11.02;6.80;;;7.00;99.90;;;;;;5023068;28;20433;-59
2022/03/24 00:54:41;;;;;;;9.02;6.18;;;7.00;99.90;;;;;;5021905;28;20088;-59
2022/03/24 00:57:08;;;;;;;8.93;6.80;;;7.00;99.90;;;;;;5023355;28;20061;-59
2022/03/24 00:59:35;;;;;;;9.48;7.28;;;6.90;99.90;;;;;;5023029;28;20132;-59
2022/03/24 01:02:02;;;;;;;9.85;7.45;;;6.90;99.90;;;;;;5023373;28;20077;-59
2022/03/24 01:04:30;;;;;;;12.20;6.95;;;6.90;99.90;;;;;;5022397;28;20072;-59
2022/03/24 01:06:56;;;;;;;8.77;6.15;;;6.80;99.90;;;;;;5022816;28;20134;-59
2022/03/24 01:09:23;;;;;;;7.55;6.00;;;6.80;99.90;;;;;;5023185;28;20148;-59
2022/03/24 01:11:51;;;;;;;12.15;6.30;;;6.80;99.90;;;;;;5022756;28;20045;-59
2022/03/24 01:14:18;;;;;;;9.60;6.82;;;6.80;99.90;;;;;;5023264;28;20092;-58
2022/03/24 01:16:45;;;;;;;9.32;6.57;;;6.70;99.90;;;;;;5023337;28;20116;-59
2022/03/24 01:19:12;;;;;;;8.52;6.00;;;6.70;99.90;;;;;;5022457;28;20062;-59
2022/03/24 01:21:39;;;;;;;8.75;6.15;;;6.70;99.90;;;;;;5013170;28;20134;-59
2022/03/24 01:24:06;;;;;;;9.57;6.80;;;6.60;99.90;;;;;;5006557;28;20120;-59
2022/03/24 01:26:33;;;;;;;10.75;6.43;;;6.60;99.90;;;;;;5023102;28;20123;-59
2022/03/24 01:29:00;;;;;;;8.68;6.53;;;6.60;99.90;;;;;;5023126;28;20640;-59
2022/03/24 01:31:27;;;;;;;10.02;7.10;;;6.50;99.90;;;;;;5023063;28;20167;-59
2022/03/24 01:33:54;;;;;;;11.52;7.57;;;6.50;99.90;;;;;;5022205;28;20058;-59
2022/03/24 01:36:21;;;;;;;9.65;6.78;;;6.50;99.90;;;;;;5021649;28;20165;-62
2022/03/24 01:38:47;;;;;;;10.88;6.60;;;6.40;99.90;;;;;;5023266;28;20055;-58
2022/03/24 01:41:14;;;;;;;10.20;6.90;;;6.40;99.90;;;;;;5022181;28;20073;-58
2022/03/24 01:43:42;;;;;;;7.95;5.75;;;6.40;99.90;;;;;;5022439;28;20085;-59
2022/03/24 01:46:09;;;;;;;7.88;6.03;;;6.40;99.90;;;;;;5022648;28;20119;-59
2022/03/24 01:48:36;;;;;;;9.80;6.63;;;6.30;99.90;;;;;;5022589;28;20124;-59
2022/03/24 01:51:02;;;;;;;8.27;6.38;;;6.30;99.90;;;;;;5019697;28;20088;-59
2022/03/24 01:53:30;;;;;;;8.00;5.82;;;6.20;99.90;;;;;;5022500;28;20089;-58
2022/03/24 01:55:57;;;;;;;9.60;6.75;;;6.20;99.90;;;;;;5021396;28;20172;-59
2022/03/24 01:58:24;;;;;;;8.10;6.15;;;6.20;99.90;;;;;;5020658;28;20125;-58
2022/03/24 02:00:51;;;;;;;10.07;5.88;;;6.20;99.90;;;;;;5021404;28;20049;-58
2022/03/24 02:03:19;;;;;;;8.23;5.65;;;6.20;99.90;;;;;;5022275;28;20476;-59
2022/03/24 02:05:46;;;;;;;8.38;5.88;;;6.20;99.90;;;;;;5019585;28;20049;-59
2022/03/24 02:08:12;;;;;;;8.68;5.57;;;6.20;99.90;;;;;;5021623;28;20077;-59
2022/03/24 02:10:39;;;;;;;8.18;5.55;;;6.10;99.90;;;;;;5022217;28;20140;-59
2022/03/24 02:13:08;;;;;;;8.23;5.75;;;6.10;99.90;;;;;;5022644;28;20144;-59
2022/03/24 02:15:35;;;;;;;8.70;6.22;;;6.10;99.90;;;;;;5021752;28;20050;-59
2022/03/24 02:18:03;;;;;;;7.63;4.97;;;6.10;99.90;;;;;;5021792;28;20091;-59
2022/03/24 02:20:33;;;;;;;9.95;6.57;;;6.00;99.90;;;;;;5020842;28;20830;-59
2022/03/24 02:23:01;;;;;;;7.53;5.68;;;6.00;99.90;;;;;;5021474;28;20506;-58
2022/03/24 02:25:32;;;;;;;7.72;5.70;;;5.90;99.90;;;;;;5021756;28;20569;-59
2022/03/24 02:28:01;;;;;;;7.32;5.85;;;5.90;99.90;;;;;;5021645;28;20041;-58
2022/03/24 02:30:29;;;;;;;9.27;6.65;;;5.80;99.90;;;;;;5020582;28;20463;-58
2022/03/24 02:32:56;;;;;;;8.55;5.93;;;5.60;99.90;;;;;;5020605;28;20502;-59
2022/03/24 02:35:23;;;;;;;6.53;5.20;;;5.60;99.90;;;;;;5023275;28;20107;-58
2022/03/24 02:37:50;;;;;;;7.53;6.05;;;5.60;99.90;;;;;;5021812;28;20485;-58
2022/03/24 02:40:16;;;;;;;6.68;5.35;;;5.70;99.90;;;;;;5023267;28;20107;-58
2022/03/24 02:42:44;;;;;;;8.15;6.07;;;5.60;99.90;;;;;;5023382;28;20057;-59
2022/03/24 02:45:11;;;;;;;7.50;5.55;;;5.60;99.90;;;;;;5023722;28;20132;-58
2022/03/24 02:47:38;;;;;;;8.20;5.65;;;5.60;99.90;;;;;;5024033;28;20049;-58
2022/03/24 02:50:05;;;;;;;8.55;5.13;;;5.50;99.90;;;;;;5021404;28;20128;-58
2022/03/24 02:52:32;;;;;;;8.98;6.00;;;5.50;99.90;;;;;;5022275;28;20095;-59
2022/03/24 02:54:59;;;;;;;9.02;5.78;;;5.50;99.90;;;;;;5023657;28;20096;-59
2022/03/24 02:57:25;;;;;;;6.80;5.22;;;5.50;99.90;;;;;;5023483;28;20076;-58
2022/03/24 02:59:52;;;;;;;6.53;5.03;;;5.50;99.90;;;;;;5023443;28;20080;-58
2022/03/24 03:02:19;;;;;;;8.20;5.13;;;5.50;99.90;;;;;;5023031;28;20085;-59
2022/03/24 03:04:51;;;;;;;7.40;5.68;;;5.50;99.90;;;;;;5005927;28;20060;-59
2022/03/24 03:07:17;;;;;;;9.25;5.20;;;5.50;99.90;;;;;;5020109;28;20060;-58
2022/03/24 03:09:44;;;;;;;7.68;5.75;;;5.40;99.90;;;;;;5023599;28;20089;-58
2022/03/24 03:12:11;;;;;;;7.20;5.50;;;5.40;99.90;;;;;;5003461;28;20495;-59
2022/03/24 03:14:39;;;;;;;7.18;5.85;;;5.40;99.90;;;;;;5014979;28;20385;-58
2022/03/24 03:17:06;;;;;;;7.60;5.07;;;5.30;99.90;;;;;;5024187;28;20089;-59
2022/03/24 03:19:32;;;;;;;5.85;4.82;;;5.30;99.90;;;;;;5022659;28;20132;-57
2022/03/24 03:21:59;;;;;;;8.35;5.53;;;5.30;99.90;;;;;;5021652;28;20531;-59
2022/03/24 03:24:26;;;;;;;7.03;4.95;;;5.20;99.90;;;;;;5020915;28;20076;-58
2022/03/24 03:26:53;;;;;;;7.05;5.07;;;5.10;99.90;;;;;;5023421;28;20132;-58
2022/03/24 03:29:22;;;;;;;6.90;5.10;;;5.20;99.90;;;;;;5023143;28;20076;-59
2022/03/24 03:31:50;;;;;;;6.93;5.30;;;5.10;99.90;;;;;;5022621;28;20053;-58
2022/03/24 03:34:17;;;;;;;6.28;4.75;;;5.10;99.90;;;;;;5022316;28;20124;-59
2022/03/24 03:36:44;;;;;;;7.53;5.55;;;5.00;99.90;;;;;;5020776;28;20124;-59
2022/03/24 03:39:12;;;;;;;7.75;5.25;;;4.90;99.90;;;;;;5023542;28;20124;-59
2022/03/24 03:41:39;;;;;;;8.27;5.15;;;4.90;99.90;;;;;;5018323;28;20088;-58
2022/03/24 03:44:06;;;;;;;9.13;5.47;;;4.90;99.90;;;;;;5021266;28;20052;-58
2022/03/24 03:46:33;;;;;;;6.65;4.70;;;4.90;99.90;;;;;;5022657;28;20049;-58
2022/03/24 03:49:00;;;;;;;8.02;4.72;;;4.90;99.90;;;;;;5020980;28;20065;-59
2022/03/24 03:51:27;;;;;;;7.40;5.45;;;4.90;99.90;;;;;;5021644;28;20130;-59
2022/03/24 03:53:55;;;;;;;6.68;5.18;;;4.90;99.90;;;;;;5021137;28;20120;-59
2022/03/24 03:56:21;;;;;;;7.68;5.78;;;4.90;99.90;;;;;;5003602;28;20886;-59
2022/03/24 03:58:48;;;;;;;6.15;5.22;;;4.90;99.90;;;;;;5004549;28;20421;-59
2022/03/24 04:01:15;;;;;;;7.65;5.40;;;4.80;99.90;;;;;;5022475;28;20053;-59
2022/03/24 04:03:42;;;;;;;7.68;4.82;;;4.90;99.90;;;;;;5022270;28;20136;-59
2022/03/24 04:06:10;;;;;;;7.40;5.45;;;4.80;99.90;;;;;;5021270;28;20516;-59
2022/03/24 04:08:38;;;;;;;6.68;5.07;;;4.80;99.90;;;;;;5022324;28;20092;-58
2022/03/24 04:11:07;;;;;;;6.22;4.90;;;4.80;99.90;;;;;;5022774;28;20128;-59
2022/03/24 04:13:35;;;;;;;6.55;5.22;;;4.80;99.90;;;;;;5022608;28;20041;-59
2022/03/24 04:16:02;;;;;;;6.80;5.22;;;4.70;99.90;;;;;;5022796;28;20136;-59
2022/03/24 04:18:29;;;;;;;6.50;4.80;;;4.70;99.90;;;;;;5024275;28;20045;-59
2022/03/24 04:20:56;;;;;;;7.35;5.07;;;4.70;99.90;;;;;;5024547;28;20081;-59
2022/03/24 04:23:23;;;;;;;6.72;4.85;;;4.70;99.90;;;;;;5025564;28;20041;-59
2022/03/24 04:25:51;;;;;;;5.50;4.65;;;4.60;99.90;;;;;;5024481;28;20065;-62
2022/03/24 04:28:17;;;;;;;6.95;5.38;;;4.60;99.90;;;;;;5025687;28;20519;-58
2022/03/24 04:30:44;;;;;;;8.77;5.85;;;4.60;99.90;;;;;;5025389;28;20204;-58
2022/03/24 04:33:11;;;;;;;7.45;4.88;;;4.50;99.90;;;;;;5025351;28;20048;-59
2022/03/24 04:35:38;;;;;;;7.50;5.40;;;4.50;99.90;;;;;;5023657;28;20132;-59
2022/03/24 04:38:05;;;;;;;7.40;5.28;;;4.40;99.90;;;;;;5024902;28;20073;-59
2022/03/24 04:40:32;;;;;;;7.45;5.22;;;4.40;99.90;;;;;;5026082;28;20124;-59
2022/03/24 04:42:59;;;;;;;6.95;4.82;;;4.40;99.90;;;;;;5040478;28;21844;-59
2022/03/24 04:45:27;;;;;;;7.05;5.45;;;4.40;99.90;;;;;;5025146;28;20132;-58
2022/03/24 04:47:54;;;;;;;6.22;5.07;;;4.40;99.90;;;;;;5025504;28;20050;-59
2022/03/24 04:50:21;;;;;;;6.32;4.82;;;4.30;99.90;;;;;;5024647;28;20045;-59
2022/03/24 04:52:48;;;;;;;7.13;4.88;;;4.30;99.90;;;;;;5024510;28;20045;-59
2022/03/24 04:55:14;;;;;;;7.53;5.30;;;4.30;99.90;;;;;;5025975;28;20132;-59
2022/03/24 04:57:42;;;;;;;7.68;5.10;;;4.30;99.90;;;;;;5025928;28;20127;-59
2022/03/24 05:00:09;;;;;;;6.93;4.75;;;4.30;99.90;;;;;;5023265;28;20077;-59
2022/03/24 05:02:36;;;;;;;6.22;4.53;;;4.30;99.90;;;;;;5025639;28;20144;-59
2022/03/24 05:05:03;;;;;;;5.82;4.35;;;4.30;99.90;;;;;;5024882;28;20560;-59
2022/03/24 05:07:30;;;;;;;6.05;4.63;;;4.30;99.90;;;;;;5023126;28;20620;-56
2022/03/24 05:09:57;;;;;;;5.88;4.70;;;4.30;99.90;;;;;;5025313;28;20132;-59
2022/03/24 05:12:24;;;;;;;6.90;4.93;;;4.30;99.90;;;;;;5013125;28;20077;-59
2022/03/24 05:14:51;;;;;;;5.85;4.38;;;4.20;99.90;;;;;;5004629;28;20045;-59
2022/03/24 05:17:17;;;;;;;6.65;5.20;;;4.20;99.90;;;;;;5025581;28;20136;-59
2022/03/24 05:19:47;;;;;;;6.28;4.72;;;4.20;99.90;;;;;;5023952;28;20140;-59
2022/03/24 05:22:15;;;;;;;7.20;5.00;;;4.10;99.90;;;;;;5023321;28;20060;-59
2022/03/24 05:24:42;;;;;;;6.60;5.35;;;4.10;99.90;;;;;;5025118;28;20135;-60
2022/03/24 05:27:09;;;;;;;6.68;4.93;;;4.00;99.90;;;;;;5024929;28;20137;-57
2022/03/24 05:29:36;;;;;;;6.97;4.72;;;4.00;99.90;;;;;;5023749;28;20128;-59
2022/03/24 05:32:04;;;;;;;6.68;5.07;;;4.00;99.90;;;;;;5024586;28;20148;-59
2022/03/24 05:34:32;;;;;;;7.78;4.93;;;4.00;99.90;;;;;;5023840;28;20058;-58
2022/03/24 05:36:59;;;;;;;5.97;4.50;;;4.00;99.90;;;;;;5024835;28;20081;-59
2022/03/24 05:39:25;;;;;;;6.03;4.85;;;3.90;99.90;;;;;;5024459;28;20577;-59
2022/03/24 05:41:52;;;;;;;7.30;4.88;;;3.90;99.90;;;;;;5024430;28;20493;-57
2022/03/24 05:44:19;;;;;;;7.65;5.03;;;3.90;99.90;;;;;;5023573;28;20564;-58
2022/03/24 05:46:47;;;;;;;6.50;5.22;;;3.90;99.90;;;;;;5022986;28;20128;-58
2022/03/24 05:49:15;;;;;;;7.05;5.47;;;3.90;99.90;;;;;;5022837;28;20169;-58
2022/03/24 05:51:42;;;;;;;7.57;5.32;;;3.90;99.90;;;;;;5022719;28;20103;-58
2022/03/24 05:54:10;;;;;;;7.00;4.55;;;3.90;99.90;;;;;;5023152;28;20144;-57
2022/03/24 05:56:37;;;;;;;6.90;5.03;;;3.90;99.90;;;;;;5023462;28;20567;-58
2022/03/24 05:59:04;;;;;;;5.95;4.38;;;3.90;99.90;;;;;;5023705;28;20072;-58
2022/03/24 06:01:30;;;;;;;6.18;4.45;;;3.80;99.90;;;;;;5023810;28;20148;-58
2022/03/24 06:03:59;;;;;;;7.30;4.38;;;3.80;99.90;;;;;;5015291;28;20073;-58
2022/03/24 06:06:26;;;;;;;6.60;4.65;;;3.80;99.90;;;;;;5019644;28;20149;-58
2022/03/24 06:08:56;;;;;;;8.05;4.47;;;3.80;99.90;;;;;;5021497;28;20057;-59
2022/03/24 06:11:24;;;;;;;8.98;4.97;;;3.80;99.90;;;;;;5021868;28;20152;-58
2022/03/24 06:13:51;;;;;;;7.10;4.85;;;3.80;99.90;;;;;;5021205;28;20128;-58
2022/03/24 06:16:19;;;;;;;6.63;4.55;;;3.80;99.90;;;;;;5020920;28;20053;-60
2022/03/24 06:18:46;;;;;;;4.97;4.05;;;3.80;99.90;;;;;;5021714;28;20046;-60
2022/03/24 06:21:14;;;;;;;5.13;4.45;;;3.90;99.90;;;;;;5012067;28;20137;-58
2022/03/24 06:23:41;;;;;;;7.13;4.65;;;3.90;99.90;;;;;;5011000;28;20499;-59
2022/03/24 06:26:08;;;;;;;6.80;4.95;;;4.00;99.90;;;;;;5011838;28;20161;-59
2022/03/24 06:28:35;;;;;;;6.93;4.90;;;4.00;99.90;;;;;;5011401;28;20250;-59
2022/03/24 06:31:02;;;;;;;6.72;4.80;;;4.00;99.90;;;;;;5005972;28;20104;-59
2022/03/24 06:33:29;;;;;;;7.68;4.82;;;4.00;99.90;;;;;;5010804;28;20084;-60
2022/03/24 06:35:55;;;;;;;5.80;4.47;;;4.10;99.90;;;;;;5013549;28;20485;-61
2022/03/24 06:38:23;;;;;;;5.05;4.00;;;4.10;99.90;;;;;;5009852;28;20103;-60
2022/03/24 06:40:50;;;;;;;5.70;4.35;;;4.10;99.90;;;;;;5007208;28;20579;-60
2022/03/24 06:43:17;;;;;;;7.30;4.95;;;4.10;99.90;;;;;;5007156;28;20604;-59
2022/03/24 06:45:43;;;;;;;5.88;5.28;;;4.20;99.90;;;;;;5008425;28;20050;-60
2022/03/24 06:48:10;;;;;;;5.80;4.70;;;4.20;99.90;;;;;;5007954;28;20054;-59
2022/03/24 06:50:37;;;;;;;9.38;5.38;;;4.30;99.90;;;;;;5007049;28;20152;-59
2022/03/24 06:53:04;;;;;;;7.32;5.15;;;4.30;99.90;;;;;;5008984;28;20136;-60
2022/03/24 06:55:31;;;;;;;6.20;4.25;;;4.30;99.90;;;;;;5017953;28;20559;-59
2022/03/24 06:57:58;;;;;;;6.97;4.63;;;4.40;99.90;;;;;;5016430;28;20414;-59
2022/03/24 07:00:25;;;;;;;6.32;5.07;;;4.50;99.90;;;;;;5007976;28;20188;-60
2022/03/24 07:02:52;;;;;;;6.32;5.18;;;4.50;99.90;;;;;;5016085;28;20132;-59
2022/03/24 07:05:19;;;;;;;8.05;4.95;;;4.50;99.90;;;;;;5015122;28;20110;-60
2022/03/24 07:07:45;;;;;;;5.47;4.28;;;4.60;99.90;;;;;;5014129;28;20530;-59
2022/03/24 07:10:12;;;;;;;6.10;3.92;;;4.60;99.90;;;;;;5000534;28;20045;-61
2022/03/24 07:12:39;;;;;;;4.18;3.40;;;4.70;99.90;;;;;;5012129;28;20057;-60
2022/03/24 07:15:10;;;;;;;5.20;4.10;;;4.80;99.90;;;;;;5015253;28;20140;-60
2022/03/24 07:17:37;;;;;;;5.28;3.65;;;5.00;99.90;;;;;;5016033;28;20637;-60
2022/03/24 07:20:04;;;;;;;4.93;3.70;;;5.10;99.90;;;;;;5009879;28;20615;-60
2022/03/24 07:22:32;;;;;;;4.65;3.53;;;5.10;99.90;;;;;;5000553;28;20050;-60
2022/03/24 07:24:59;;;;;;;4.88;3.85;;;5.20;99.90;;;;;;4996181;28;20082;-60
2022/03/24 07:27:26;;;;;;;5.68;3.75;;;5.30;99.90;;;;;;4995510;28;20651;-60
2022/03/24 07:29:59;;;;;;;5.00;3.55;;;5.40;99.90;;;;;;4996166;28;20097;-61
2022/03/24 07:32:26;;;;;;;4.13;3.55;;;5.40;99.90;;;;;;4996877;28;20392;-60
2022/03/24 07:34:52;;;;;;;4.38;3.63;;;5.50;99.90;;;;;;4996598;28;20057;-60
2022/03/24 07:37:19;;;;;;;4.80;3.83;;;5.50;99.90;;;;;;4998562;28;20169;-60
2022/03/24 07:39:46;;;;;;;4.80;3.70;;;5.60;99.90;;;;;;4997383;28;20487;-60
2022/03/24 07:42:14;;;;;;;4.47;3.70;;;5.70;99.90;;;;;;4998081;28;20061;-60
2022/03/24 07:44:41;;;;;;;5.00;4.10;;;5.80;99.90;;;;;;4997493;28;20062;-60
2022/03/24 07:47:08;;;;;;;5.70;4.05;;;5.80;99.90;;;;;;4998542;28;20089;-60
2022/03/24 07:49:35;;;;;;;6.90;3.75;;;5.90;99.90;;;;;;4996659;28;20085;-61
2022/03/24 07:52:02;;;;;;;6.32;4.00;;;6.00;99.90;;;;;;4997899;28;20415;-60
2022/03/24 07:54:56;;;;;;;5.95;4.00;;;6.10;99.90;;;;;;4997893;28;20112;-60
2022/03/24 07:57:23;;;;;;;5.23;3.97;;;6.30;99.90;;;;;;4993030;28;20128;-60
2022/03/24 07:59:50;;;;;;;6.68;4.75;;;6.30;99.90;;;;;;5001663;28;20357;-60
2022/03/24 08:02:17;;;;;;;4.97;3.75;;;6.40;99.90;;;;;;5000276;28;20487;-60
2022/03/24 08:04:45;;;;;;;5.45;3.85;;;6.50;99.90;;;;;;5010467;28;20045;-61
2022/03/24 08:07:11;;;;;;;6.80;4.75;;;6.60;99.90;;;;;;5003834;28;20061;-60
2022/03/24 08:09:39;;;;;;;5.18;4.18;;;6.70;99.90;;;;;;5012124;28;20049;-60
2022/03/24 08:12:09;;;;;;;6.97;4.30;;;6.90;99.90;;;;;;5017025;28;20448;-61
2022/03/24 08:14:36;;;;;;;6.53;4.53;;;7.00;99.90;;;;;;5018102;28;20057;-60
2022/03/24 08:17:03;;;;;;;5.25;4.30;;;7.10;99.90;;;;;;5013795;28;20321;-61
2022/03/24 08:19:29;;;;;;;6.18;4.28;;;7.30;99.90;;;;;;5003860;28;20140;-61
2022/03/24 08:21:56;;;;;;;6.05;4.70;;;7.40;99.90;;;;;;5004170;28;20055;-60
2022/03/24 08:24:23;;;;;;;7.10;5.13;;;7.50;99.90;;;;;;5008468;28;20145;-60
2022/03/24 08:26:50;;;;;;;5.72;4.75;;;7.60;99.90;;;;;;5009004;28;20059;-61
2022/03/24 08:29:17;;;;;;;4.50;3.50;;;7.70;99.90;;;;;;5012167;28;20208;-62
2022/03/24 08:31:44;;;;;;;6.03;4.97;;;7.90;99.90;;;;;;5013924;28;20049;-61
2022/03/24 08:34:10;;;;;;;6.18;4.72;;;8.00;99.90;;;;;;5019788;28;20172;-60
2022/03/24 08:36:37;;;;;;;5.97;4.95;;;8.10;99.90;;;;;;5011792;28;20112;-60
2022/03/24 08:39:04;;;;;;;7.03;4.95;;;8.30;99.90;;;;;;5000293;28;20081;-61
2022/03/24 08:41:31;;;;;;;6.47;4.88;;;8.40;99.90;;;;;;5012022;28;20156;-61
2022/03/24 08:43:58;;;;;;;5.63;4.80;;;8.60;99.90;;;;;;5020052;28;20521;-61
2022/03/24 08:46:25;;;;;;;6.38;4.78;;;8.70;99.90;;;;;;5015724;28;20103;-60
2022/03/24 08:48:53;;;;;;;7.13;4.90;;;8.80;99.90;;;;;;5011016;28;20093;-60
2022/03/24 08:51:20;;;;;;;6.43;4.90;;;9.00;99.90;;;;;;5029518;28;20081;-60
2022/03/24 08:53:47;;;;;;;6.88;4.93;;;9.10;99.90;;;;;;4999216;28;20144;-61
2022/03/24 08:56:14;;;;;;;5.65;4.53;;;9.20;99.90;;;;;;5009235;28;20464;-61
2022/03/24 08:58:42;;;;;;;5.85;4.45;;;9.40;99.90;;;;;;5010695;28;20512;-61
2022/03/24 09:01:10;;;;;;;5.13;4.63;;;9.50;99.90;;;;;;5012682;28;20146;-61
2022/03/24 09:03:38;;;;;;;6.97;5.15;;;9.70;99.90;;;;;;5010463;28;20063;-60
2022/03/24 09:06:06;;;;;;;5.43;4.47;;;9.80;99.90;;;;;;5009948;28;20055;-63
2022/03/24 09:08:34;;;;;;;5.50;4.70;;;10.00;99.90;;;;;;5003196;28;20405;-61
2022/03/24 09:11:01;;;;;;;6.85;5.00;;;10.10;99.90;;;;;;5009485;28;20118;-61
2022/03/24 09:13:28;;;;;;;6.47;4.90;;;10.20;99.90;;;;;;5007846;28;20045;-61
2022/03/24 09:15:54;;;;;;;6.70;4.93;;;10.30;99.90;;;;;;5019780;28;20072;-61
2022/03/24 09:18:21;;;;;;;6.10;4.97;;;10.40;99.90;;;;;;5019244;28;20234;-60
2022/03/24 09:20:48;;;;;;;6.13;4.97;;;10.60;99.90;;;;;;5019725;28;20176;-61
2022/03/24 09:23:15;;;;;;;6.75;5.00;;;10.70;99.90;;;;;;5014644;28;20053;-60
2022/03/24 09:25:42;;;;;;;6.90;5.05;;;10.90;99.70;;;;;;5014764;28;20172;-61
2022/03/24 09:28:10;;;;;;;6.18;4.75;;;11.00;99.10;;;;;;5009274;28;20496;-60
2022/03/24 09:30:36;;;;;;;6.78;4.85;;;11.20;98.30;;;;;;5005033;28;20195;-59
2022/03/24 09:33:04;;;;;;;7.88;5.32;;;11.30;98.30;;;;;;5003786;28;20609;-60
2022/03/24 09:35:31;;;;;;;6.63;4.90;;;11.50;98.00;;;;;;5012174;28;20467;-60
2022/03/24 09:37:58;;;;;;;7.30;5.38;;;11.60;98.50;;;;;;5007848;28;20061;-60
2022/03/24 09:40:25;;;;;;;9.02;5.80;;;11.70;97.90;;;;;;5003474;28;20456;-59
2022/03/24 09:42:52;;;;;;;7.03;5.38;;;11.90;97.50;;;;;;4999619;28;20061;-59
2022/03/24 09:45:19;;;;;;;8.07;5.13;;;12.10;97.30;;;;;;5004345;28;20376;-59
2022/03/24 09:47:46;;;;;;;7.03;5.55;;;12.20;96.50;;;;;;5001498;28;20057;-59
2022/03/24 09:50:14;;;;;;;7.05;5.40;;;12.30;96.60;;;;;;5001347;28;20152;-60
2022/03/24 09:52:41;;;;;;;7.90;5.80;;;12.50;96.10;;;;;;5012454;28;20048;-60
2022/03/24 09:55:14;;;;;;;8.10;5.53;;;12.60;95.20;;;;;;5017974;28;20468;-60
2022/03/24 09:57:42;;;;;;;6.85;5.68;;;12.70;94.00;;;;;;5019504;28;20056;-60
2022/03/24 10:00:28;;;;;;;7.13;5.32;;;12.90;93.70;;;;;;5016271;28;20053;-60
2022/03/24 10:03:15;;;;;;;8.63;6.25;;;13.00;93.20;;;;;;5011735;28;20436;-60
2022/03/24 10:06:02;;;;;;;8.55;5.97;;;13.20;92.70;;;;;;5017377;28;20050;-60
2022/03/24 10:08:29;;;;;;;9.57;6.40;;;13.30;90.90;;;;;;5006329;28;20120;-60
2022/03/24 10:11:01;;;;;;;6.60;5.60;;;13.40;90.50;;;;;;5000027;28;20108;-60
2022/03/24 10:13:49;;;;;;;9.55;5.82;;;13.60;90.20;;;;;;5011652;28;20068;-60
2022/03/24 10:16:32;;;;;;;9.50;7.03;;;13.70;90.50;;;;;;4998692;28;20077;-60
2022/03/24 10:19:05;;;;;;;7.63;6.20;;;13.70;90.00;;;;;;5003077;28;20100;-60
2022/03/24 10:21:32;;;;;;;9.30;6.95;;;13.80;88.20;;;;;;4996821;28;20502;-59
2022/03/24 10:24:08;;;;;;;8.60;6.50;;;13.90;85.80;;;;;;4998892;28;20131;-59
2022/03/24 10:27:03;;;;;;;10.20;6.18;;;13.90;84.30;;;;;;4999248;28;20455;-60
2022/03/24 10:29:31;;;;;;;9.07;5.90;;;14.00;81.50;;;;;;5009727;28;20184;-60
2022/03/24 10:31:59;;;;;;;7.05;4.82;;;14.00;79.50;;;;;;5003018;28;20089;-60
2022/03/24 10:34:29;;;;;;;7.90;5.40;;;14.10;77.60;;;;;;4997152;28;20140;-59
2022/03/24 10:36:55;;;;;;;7.97;4.80;;;14.20;76.50;;;;;;5012877;28;20045;-59
2022/03/24 10:39:28;;;;;;;5.50;4.00;;;14.30;71.70;;;;;;4998551;28;20104;-59
2022/03/24 10:41:55;;;;;;;6.13;3.67;;;14.50;70.30;;;;;;5004715;28;20069;-60
2022/03/24 10:44:22;;;;;;;5.82;4.10;;;14.60;70.20;;;;;;4992609;28;20137;-59
2022/03/24 10:46:49;;;;;;;5.72;3.95;;;14.70;75.30;;;;;;5015123;28;20543;-59
2022/03/24 10:49:21;;;;;;;4.75;3.95;;;14.70;71.00;;;;;;5007195;28;20061;-59
2022/03/24 10:51:54;;;;;;;5.47;3.55;;;14.90;67.30;;;;;;5008034;28;20053;-60
2022/03/24 10:54:24;;;;;;;5.15;4.07;;;15.00;65.90;;;;;;4998973;28;20133;-60
2022/03/24 10:57:13;;;;;;;5.78;4.20;;;15.10;68.80;;;;;;5003519;28;20276;-60
2022/03/24 10:59:42;;;;;;;8.57;4.18;;;15.30;60.80;;;;;;5004665;28;20123;-58
2022/03/24 11:02:09;;;;;;;7.85;4.68;;;15.30;65.00;;;;;;5000028;28;20129;-60
2022/03/24 11:04:36;;;;;;;7.32;5.07;;;15.40;65.80;;;;;;5014442;28;20481;-60
2022/03/24 11:07:04;;;;;;;6.50;4.80;;;15.30;64.90;;;;;;5011509;28;20472;-61
2022/03/24 11:09:32;;;;;;;4.95;4.28;;;15.50;64.80;;;;;;5012506;28;20050;-60
2022/03/24 11:12:25;;;;;;;6.72;4.40;;;15.60;62.90;;;;;;5009230;28;20136;-60
2022/03/24 11:14:59;;;;;;;5.45;4.15;;;15.70;61.20;;;;;;5005683;28;20130;-60
2022/03/24 11:17:37;;;;;;;4.55;3.83;;;15.90;62.70;;;;;;5021375;28;20669;-61
2022/03/24 11:20:13;;;;;;;4.75;4.10;;;16.10;63.10;;;;;;5015380;28;20125;-61
2022/03/24 11:22:50;;;;;;;4.63;3.58;;;16.30;60.10;;;;;;5008848;28;20134;-60
2022/03/24 11:25:20;;;;;;;5.22;4.28;;;16.50;57.60;;;;;;5000057;28;20077;-60
2022/03/24 11:27:48;;;;;;;6.10;4.50;;;16.50;59.00;;;;;;5002774;28;20512;-60
2022/03/24 11:30:15;;;;;;;5.72;4.65;;;16.50;56.90;;;;;;5013342;28;20462;-60
2022/03/24 11:32:43;;;;;;;5.13;4.45;;;16.60;57.10;;;;;;5011468;28;20129;-61
2022/03/24 11:35:10;;;;;;;5.55;3.92;;;16.80;53.70;;;;;;5009351;28;20180;-60
2022/03/24 11:37:37;;;;;;;6.55;4.90;;;17.10;54.10;;;;;;5024976;28;20057;-62
2022/03/24 11:40:10;;;;;;;5.10;4.25;;;17.50;54.40;;;;;;5003841;28;20172;-60
2022/03/24 11:42:46;;;;;;;5.20;4.10;;;17.70;53.90;;;;;;5004988;28;20155;-60
2022/03/24 11:45:38;;;;;;;5.55;4.20;;;18.00;52.80;;;;;;5018013;28;20431;-60
2022/03/24 11:48:06;;;;;;;6.80;5.10;;;18.30;53.10;;;;;;5016429;28;20057;-60
2022/03/24 11:50:45;;;;;;;6.93;4.97;;;18.30;53.60;;;;;;5015456;28;20499;-60
2022/03/24 11:53:15;;;;;;;7.55;5.15;;;18.40;52.70;;;;;;5018981;28;20058;-60
2022/03/24 11:56:03;;;;;;;6.38;4.80;;;18.50;52.70;;;;;;5037131;28;20046;-59
2022/03/24 11:58:35;;;;;;;6.05;4.57;;;18.60;51.10;;;;;;5009051;28;20454;-60
2022/03/24 12:01:17;;;;;;;5.43;4.40;;;19.00;49.50;;;;;;5013083;28;20050;-60
2022/03/24 12:03:45;;;;;;;7.00;5.65;;;19.20;51.40;;;;;;5004991;28;20049;-60
2022/03/24 12:06:13;;;;;;;7.85;6.97;;;19.10;47.00;;;;;;5005421;28;20084;-60
2022/03/24 12:08:51;;;;;;;6.05;5.45;;;19.10;47.80;;;;;;5006301;28;20081;-60
2022/03/24 12:11:36;;;;;;;6.97;5.22;;;19.40;48.50;;;;;;5031890;28;20053;-60
2022/03/24 12:14:07;;;;;;;6.63;4.25;;;19.80;47.80;;;;;;5021020;28;20112;-60
2022/03/24 12:16:38;;;;;;;5.80;4.60;;;20.20;48.00;;;;;;5013775;28;20049;-60
2022/03/24 12:19:08;;;;;;;5.45;4.68;;;20.20;47.60;;;;;;5008089;28;20413;-60
2022/03/24 12:21:35;;;;;;;5.55;4.32;;;20.30;47.60;;;;;;5004194;28;20093;-60
2022/03/24 12:24:02;;;;;;;7.18;6.43;;;20.20;46.40;;;;;;5001934;28;20129;-60
2022/03/24 12:26:35;;;;;;;6.50;5.15;;;20.20;44.90;;;;;;5000777;28;20623;-60
2022/03/24 12:29:11;;;;;;;6.65;5.72;;;20.30;46.30;;;;;;5000688;28;20481;-60
2022/03/24 12:32:01;;;;;;;5.63;4.97;;;20.50;46.40;;;;;;5008041;28;20087;-60
2022/03/24 12:34:44;;;;;;;5.60;4.30;;;20.70;45.00;;;;;;5018538;28;20080;-60
2022/03/24 12:37:40;;;;;;;5.00;4.50;;;21.10;44.30;;;;;;5012412;28;20493;-60
2022/03/24 12:40:08;;;;;;;5.00;4.00;;;21.50;42.00;;;;;;5003224;28;20140;-60
2022/03/24 12:42:40;;;;;;;4.22;3.83;;;21.60;41.80;;;;;;5019030;28;20069;-60
2022/03/24 12:45:07;;;;;;;5.53;4.65;;;21.80;41.40;;;;;;5017975;28;20279;-61
2022/03/24 12:47:36;;;;;;;6.25;4.55;;;21.80;41.60;;;;;;5018765;28;20219;-60
2022/03/24 12:50:21;;;;;;;4.70;3.83;;;22.10;40.70;;;;;;5013688;28;20111;-60
2022/03/24 12:52:56;;;;;;;4.88;4.10;;;22.50;40.30;;;;;;4999459;28;20132;-60
2022/03/24 12:55:42;;;;;;;6.13;4.50;;;22.50;41.00;;;;;;4999842;28;20471;-61
2022/03/24 12:58:16;;;;;;;6.50;5.90;;;22.50;42.00;;;;;;5007094;28;20140;-61
2022/03/24 13:00:48;;;;;;;6.05;5.18;;;22.20;41.50;;;;;;5006741;28;20387;-61